Hua Heng 167 — BIAK3 — position and weather

sailwx.info

Track history (hours):
 
Tides and Currents Weather Stations Pressure Air Temp Water Temp Dewpoint Dewpoint Depression Visibility Wind Speed Wind Dir Waves Ship Positions

Hua Heng 167

Last reported at 2017-Nov-24 17:28 UTC. Time now 2017-Nov-24 22:34 UTC.
Position N 31°06' E 122°25'.

Length 189 m; draft 7.2 m.

Type: Cargo ship. MMSI: 413376470.

Date/timePositionNaut miles runAvg speedWind from/ knotsBaromVisibWave heightAir tempDewpointWater temp
2017-Nov-24 17:28N 31°06' E 122°25'510.2
2017-Nov-24 16:58N 31°06' E 122°19'4 8.8
2017-Nov-24 16:30N 31°08' E 122°15'612.2
2017-Nov-24 16:01N 31°12' E 122°09'713.2
2017-Nov-24 15:30N 31°14' E 122°02'714.3
2017-Nov-24 15:00N 31°16' E 121°54'714.5
2017-Nov-24 14:30N 31°18' E 121°46'612.4
2017-Nov-24 14:00N 31°21' E 121°39'611.7
2017-Nov-24 13:30N 31°24' E 121°33'611.7
2017-Nov-24 12:59N 31°28' E 121°28'4 9.0
2017-Nov-24 12:30N 31°31' E 121°24'612.3
2017-Nov-24 12:00N 31°34' E 121°18'713.7
2017-Nov-24 11:31N 31°39' E 121°13'713.7
2017-Nov-24 11:00N 31°44' E 121°07'713.0
2017-Nov-24 10:30N 31°47' E 120°60'2710.4
2017-Nov-24 07:54N 32°01' E 120°33'512.8
2017-Nov-24 07:29N 32°02' E 120°26'  
2017-Nov-19 17:05N 37°56' E 122°03'311.9
2017-Nov-19 16:50N 37°58' E 121°60'412.1
2017-Nov-19 16:28N 38°00' E 121°55'  
Track history (hours):
 
Tides and Currents Weather Stations Pressure Air Temp Water Temp Dewpoint Dewpoint Depression Visibility Wind Speed Wind Dir Waves Ship Positions

Hua Heng 167

Last reported at 2017-Nov-24 17:28 UTC. Time now 2017-Nov-24 22:34 UTC.
Position N 31°06' E 122°25'.

Length 189 m; draft 7.2 m.

Type: Cargo ship. MMSI: 413376470.

Date/timePositionNaut miles runAvg speedWind from/ knotsBaromVisibWave heightAir tempDewpointWater temp
2017-Nov-24 17:28N 31°06' E 122°25'510.2
2017-Nov-24 16:58N 31°06' E 122°19'4 8.8
2017-Nov-24 16:30N 31°08' E 122°15'612.2
2017-Nov-24 16:01N 31°12' E 122°09'713.2
2017-Nov-24 15:30N 31°14' E 122°02'714.3
2017-Nov-24 15:00N 31°16' E 121°54'714.5
2017-Nov-24 14:30N 31°18' E 121°46'612.4
2017-Nov-24 14:00N 31°21' E 121°39'611.7
2017-Nov-24 13:30N 31°24' E 121°33'611.7
2017-Nov-24 12:59N 31°28' E 121°28'4 9.0
2017-Nov-24 12:30N 31°31' E 121°24'612.3
2017-Nov-24 12:00N 31°34' E 121°18'713.7
2017-Nov-24 11:31N 31°39' E 121°13'713.7
2017-Nov-24 11:00N 31°44' E 121°07'713.0
2017-Nov-24 10:30N 31°47' E 120°60'2710.4
2017-Nov-24 07:54N 32°01' E 120°33'512.8
2017-Nov-24 07:29N 32°02' E 120°26'  
2017-Nov-19 17:05N 37°56' E 122°03'311.9
2017-Nov-19 16:50N 37°58' E 121°60'412.1
2017-Nov-19 16:28N 38°00' E 121°55'  

Dump ship's entire track history